Paul Brotzge — WDD4377 — position and weather

sailwx.info

Track history (hours):
 
Tides and Currents Weather Stations Pressure Air Temp Water Temp Dewpoint Dewpoint Depression Visibility Wind Speed Wind Dir Waves Ship Positions

Paul Brotzge

Owner: American Commercial Lines LLC, Jeffersonville, IN. More information available from US FCC via Universal Licensing System and Coast Guard Vessel Documentation Center.

Last reported at 2017-Apr-25 12:08 UTC. Time now 2017-Apr-26 11:38 UTC.
Position N 38°54' W 090°12'.

Length 44 m; draft 2.9 m.

Type: Tow > 200 m length. MMSI: 367143920.

Date/timePositionNaut miles runAvg speedWind from/ knotsBaromVisibWave heightAir tempDewpointWater temp
2017-Apr-25 12:08N 38°54' W 090°12'1 6.0
2017-Apr-25 12:01N 38°54' W 090°13'3 6.4
2017-Apr-25 11:31N 38°55' W 090°17'3 6.4
2017-Apr-25 11:01N 38°56' W 090°21'3 6.9
2017-Apr-25 10:31N 38°58' W 090°24'3 6.7
2017-Apr-25 10:00N 38°57' W 090°29'3 6.0
2017-Apr-25 09:30N 38°54' W 090°31'  
2017-Apr-15 19:08N 38°52' W 090°35'2 4.4
2017-Apr-15 18:47N 38°52' W 090°33'1 4.6
2017-Apr-15 18:30N 38°53' W 090°32'3 5.2
2017-Apr-15 18:01N 38°55' W 090°30'2 4.9
2017-Apr-15 17:31N 38°57' W 090°28'2 4.3
2017-Apr-15 17:01N 38°58' W 090°25'1 1.7
2017-Apr-15 16:31N 38°58' W 090°24'0 0.9
2017-Apr-15 16:00N 38°58' W 090°24'2 4.0
2017-Apr-15 15:31N 38°57' W 090°21'2 4.4
2017-Apr-15 15:01N 38°56' W 090°19'2 4.5
2017-Apr-15 14:28N 38°55' W 090°16'  
Track history (hours):
 
Tides and Currents Weather Stations Pressure Air Temp Water Temp Dewpoint Dewpoint Depression Visibility Wind Speed Wind Dir Waves Ship Positions

Paul Brotzge

Owner: American Commercial Lines LLC, Jeffersonville, IN. More information available from US FCC via Universal Licensing System and Coast Guard Vessel Documentation Center.

Last reported at 2017-Apr-25 12:08 UTC. Time now 2017-Apr-26 11:38 UTC.
Position N 38°54' W 090°12'.

Length 44 m; draft 2.9 m.

Type: Tow > 200 m length. MMSI: 367143920.

Date/timePositionNaut miles runAvg speedWind from/ knotsBaromVisibWave heightAir tempDewpointWater temp
2017-Apr-25 12:08N 38°54' W 090°12'1 6.0
2017-Apr-25 12:01N 38°54' W 090°13'3 6.4
2017-Apr-25 11:31N 38°55' W 090°17'3 6.4
2017-Apr-25 11:01N 38°56' W 090°21'3 6.9
2017-Apr-25 10:31N 38°58' W 090°24'3 6.7
2017-Apr-25 10:00N 38°57' W 090°29'3 6.0
2017-Apr-25 09:30N 38°54' W 090°31'  
2017-Apr-15 19:08N 38°52' W 090°35'2 4.4
2017-Apr-15 18:47N 38°52' W 090°33'1 4.6
2017-Apr-15 18:30N 38°53' W 090°32'3 5.2
2017-Apr-15 18:01N 38°55' W 090°30'2 4.9
2017-Apr-15 17:31N 38°57' W 090°28'2 4.3
2017-Apr-15 17:01N 38°58' W 090°25'1 1.7
2017-Apr-15 16:31N 38°58' W 090°24'0 0.9
2017-Apr-15 16:00N 38°58' W 090°24'2 4.0
2017-Apr-15 15:31N 38°57' W 090°21'2 4.4
2017-Apr-15 15:01N 38°56' W 090°19'2 4.5
2017-Apr-15 14:28N 38°55' W 090°16'  

Dump ship's entire track history